Terminal Aerodrome Forecast
Issued by NWS

Home | Current Version | Previous Version | Text Only | Print | Product List | Glossary On
Versions: 1 2 3 4 5 6 7 8 9 10 11 12 13 14 15 16
000
FTUS44 KMOB 240532
TAFBFM
TAF
KBFM 240532Z 2406/2506 VRB06KT P6SM FEW025 SCT070
     FM241000 28004KT P6SM VCTS SCT025 BKN050CB OVC100
      TEMPO 2412/2416 3SM TSRA BKN030CB
     FM241600 24008KT P6SM VCTS BKN050CB OVC100
      TEMPO 2416/2420 3SM TSRA BKN050CB=

USA.gov is the U.S. government's official web portal to all federal, state and local government web resources and services.